createdAt,value
2017-11-24T00:00:45.713Z,100264.58
2017-11-24T00:03:11.786Z,100267.15
2017-11-24T00:05:37.601Z,100267.66
2017-11-24T00:08:03.609Z,100273.70
2017-11-24T00:10:29.481Z,100279.78
2017-11-24T00:12:55.280Z,100273.66
2017-11-24T00:15:21.103Z,100283.69
2017-11-24T00:17:46.947Z,100277.45
2017-11-24T00:20:12.969Z,100273.19
2017-11-24T00:22:38.765Z,100276.34
2017-11-24T00:25:05.287Z,100281.34
2017-11-24T00:27:31.163Z,100278.07
2017-11-24T00:29:57.292Z,100275.14
2017-11-24T00:32:23.142Z,100262.31
2017-11-24T00:34:48.951Z,100261.02
2017-11-24T00:37:14.769Z,100266.23
2017-11-24T00:39:40.598Z,100283.88
2017-11-24T00:42:06.423Z,100285.88
2017-11-24T00:44:32.225Z,100286.27
2017-11-24T00:46:58.430Z,100291.25
2017-11-24T00:49:24.261Z,100290.92
2017-11-24T00:51:50.096Z,100293.72
2017-11-24T00:54:16.194Z,100299.02
2017-11-24T00:56:42.007Z,100297.86
2017-11-24T00:59:08.234Z,100294.75
2017-11-24T01:01:34.065Z,100295.84
2017-11-24T01:04:00.010Z,100301.64
2017-11-24T01:06:25.814Z,100293.77
2017-11-24T01:08:51.642Z,100292.81
2017-11-24T01:11:17.948Z,100302.34
2017-11-24T01:13:43.747Z,100308.58
2017-11-24T01:16:09.760Z,100311.45
2017-11-24T01:18:35.574Z,100302.16
2017-11-24T01:21:01.714Z,100304.66
2017-11-24T01:23:27.615Z,100300.80
2017-11-24T01:25:53.567Z,100294.34
2017-11-24T01:28:19.353Z,100290.11
2017-11-24T01:30:45.350Z,100287.27
2017-11-24T01:33:11.162Z,100286.77
2017-11-24T01:35:36.969Z,100262.39
2017-11-24T01:38:03.069Z,100268.89
2017-11-24T01:40:28.901Z,100255.77
2017-11-24T01:42:54.754Z,100225.00
2017-11-24T01:45:20.582Z,100245.91
2017-11-24T01:47:46.409Z,100239.29
2017-11-24T01:50:12.227Z,100242.94
2017-11-24T01:52:40.022Z,100255.08
2017-11-24T01:55:05.906Z,100262.13
2017-11-24T01:57:31.718Z,100276.56
2017-11-24T01:59:57.647Z,100259.81
2017-11-24T02:02:23.461Z,100250.31
2017-11-24T02:04:49.276Z,100249.31
2017-11-24T02:07:15.143Z,100244.75
2017-11-24T02:09:40.944Z,100255.98
2017-11-24T02:12:06.721Z,100267.13
2017-11-24T02:14:32.627Z,100270.80
2017-11-24T02:16:58.419Z,100265.28
2017-11-24T02:19:24.216Z,100274.27
2017-11-24T02:21:50.050Z,100282.62
2017-11-24T02:24:15.859Z,100274.62
2017-11-24T02:26:41.669Z,100272.08
2017-11-24T02:29:07.511Z,100271.94
2017-11-24T02:31:33.328Z,100278.80
2017-11-24T02:33:59.247Z,100272.51
2017-11-24T02:36:25.471Z,100260.33
2017-11-24T02:38:51.401Z,100269.96
2017-11-24T02:41:17.264Z,100267.72
2017-11-24T02:43:43.144Z,100267.24
2017-11-24T02:46:09.269Z,100263.28
2017-11-24T02:48:35.390Z,100251.66
2017-11-24T02:51:01.277Z,100239.83
2017-11-24T02:53:27.082Z,100239.09
2017-11-24T02:55:52.919Z,100224.47
2017-11-24T02:58:18.745Z,100226.83
2017-11-24T03:00:44.564Z,100220.90
2017-11-24T03:03:10.373Z,100228.64
2017-11-24T03:05:36.192Z,100221.23
2017-11-24T03:08:01.995Z,100223.27
2017-11-24T03:10:27.834Z,100228.81
2017-11-24T03:12:53.656Z,100229.84
2017-11-24T03:15:19.493Z,100230.39
2017-11-24T03:17:45.315Z,100219.73
2017-11-24T03:20:11.117Z,100238.46
2017-11-24T03:22:36.953Z,100258.22
2017-11-24T03:25:02.978Z,100259.77
2017-11-24T03:27:28.808Z,100251.28
2017-11-24T03:29:54.622Z,100252.11
2017-11-24T03:32:20.638Z,100249.88
2017-11-24T03:34:46.451Z,100232.91
2017-11-24T03:37:12.276Z,100220.03
2017-11-24T03:39:38.116Z,100206.64
2017-11-24T03:42:03.939Z,100204.14
2017-11-24T03:44:29.811Z,100216.36
2017-11-24T03:46:55.647Z,100213.53
2017-11-24T03:49:21.473Z,100219.81
2017-11-24T03:51:47.273Z,100217.14
2017-11-24T03:54:13.299Z,100217.80
2017-11-24T03:56:39.125Z,100224.17
2017-11-24T03:59:04.936Z,100225.19
2017-11-24T04:01:30.789Z,100215.98
2017-11-24T04:03:56.633Z,100215.38
2017-11-24T04:06:22.457Z,100206.63
2017-11-24T04:08:48.324Z,100216.66
2017-11-24T04:11:14.172Z,100227.03
2017-11-24T04:13:39.995Z,100228.59
2017-11-24T04:16:05.860Z,100230.39
2017-11-24T04:18:31.696Z,100237.03
2017-11-24T04:20:57.532Z,100251.66
2017-11-24T04:23:23.379Z,100251.70
2017-11-24T04:25:49.188Z,100249.02
2017-11-24T04:28:15.065Z,100252.63
2017-11-24T04:30:41.086Z,100252.27
2017-11-24T04:33:06.906Z,100260.28
2017-11-24T04:35:32.719Z,100258.09
2017-11-24T04:37:58.548Z,100263.55
2017-11-24T04:40:24.361Z,100266.05
2017-11-24T04:42:50.165Z,100264.75
2017-11-24T04:45:16.049Z,100273.11
2017-11-24T04:47:41.885Z,100279.13
2017-11-24T04:50:07.695Z,100285.03
2017-11-24T04:52:33.607Z,100277.33
2017-11-24T04:54:59.450Z,100275.06
2017-11-24T04:57:25.254Z,100275.56
2017-11-24T04:59:51.083Z,100268.61
2017-11-24T05:02:16.916Z,100267.16
2017-11-24T05:04:42.708Z,100250.83
2017-11-24T05:07:08.562Z,100242.64
2017-11-24T05:09:34.381Z,100245.30
2017-11-24T05:12:00.173Z,100235.31
2017-11-24T05:14:26.054Z,100234.58
2017-11-24T05:16:51.861Z,100234.94
2017-11-24T05:19:17.665Z,100226.03
2017-11-24T05:21:43.534Z,100214.31
2017-11-24T05:24:09.342Z,100216.78
2017-11-24T05:26:35.141Z,100204.70
2017-11-24T05:29:00.941Z,100217.02
2017-11-24T05:31:26.749Z,100225.36
2017-11-24T05:33:52.550Z,100236.72
2017-11-24T05:36:18.389Z,100239.09
2017-11-24T05:38:44.185Z,100236.45
2017-11-24T05:41:09.991Z,100238.21
2017-11-24T05:43:35.798Z,100226.40
2017-11-24T05:46:01.639Z,100215.94
2017-11-24T05:48:27.471Z,100196.42
2017-11-24T05:50:53.280Z,100200.05
2017-11-24T05:53:19.077Z,100203.64
2017-11-24T05:55:44.910Z,100213.20
2017-11-24T05:58:10.707Z,100207.41
2017-11-24T06:00:36.530Z,100211.91
2017-11-24T06:03:02.328Z,100218.39
2017-11-24T06:05:28.128Z,100222.09
2017-11-24T06:07:53.964Z,100231.52
2017-11-24T06:10:19.789Z,100227.38
2017-11-24T06:12:45.606Z,100225.02
2017-11-24T06:15:11.421Z,100220.44
2017-11-24T06:17:37.225Z,100221.85
2017-11-24T06:20:03.168Z,100208.84
2017-11-24T06:22:28.983Z,100211.90
2017-11-24T06:24:54.809Z,100213.39
2017-11-24T06:27:20.635Z,100210.66
2017-11-24T06:29:46.434Z,100204.73
2017-11-24T06:32:12.225Z,100206.13
2017-11-24T06:34:38.099Z,100213.54
2017-11-24T06:37:03.896Z,100205.59
2017-11-24T06:39:29.693Z,100206.02
2017-11-24T06:41:55.504Z,100197.26
2017-11-24T06:44:21.320Z,100190.22
2017-11-24T06:46:47.443Z,100192.27
2017-11-24T06:49:13.633Z,100182.95
2017-11-24T06:51:39.449Z,100182.88
2017-11-24T06:54:05.269Z,100199.34
2017-11-24T06:56:31.409Z,100207.45
2017-11-24T06:58:57.209Z,100197.08
2017-11-24T07:01:23.008Z,100210.86
2017-11-24T07:03:48.854Z,100225.44
2017-11-24T07:06:14.658Z,100216.80
2017-11-24T07:08:40.458Z,100226.68
2017-11-24T07:11:06.593Z,100237.14
2017-11-24T07:13:32.442Z,100249.30
2017-11-24T07:15:58.262Z,100253.27
2017-11-24T07:18:24.112Z,100256.73
2017-11-24T07:20:49.925Z,100245.66
2017-11-24T07:23:15.743Z,100250.36
2017-11-24T07:25:41.573Z,100255.06
2017-11-24T07:28:07.417Z,100254.13
2017-11-24T07:30:33.247Z,100257.09
2017-11-24T07:32:59.078Z,100252.53
2017-11-24T07:35:24.872Z,100255.28
2017-11-24T07:37:50.672Z,100257.66
2017-11-24T07:40:16.530Z,100254.17
2017-11-24T07:42:42.333Z,100243.40
2017-11-24T07:45:08.130Z,100238.23
2017-11-24T07:47:33.969Z,100227.23
2017-11-24T07:49:59.778Z,100224.39
2017-11-24T07:52:25.566Z,100229.68
2017-11-24T07:54:51.406Z,100231.27
2017-11-24T07:57:17.221Z,100229.86
2017-11-24T07:59:43.016Z,100221.86
2017-11-24T08:02:08.859Z,100224.21
2017-11-24T08:04:34.678Z,100213.78
2017-11-24T08:07:00.459Z,100223.48
2017-11-24T08:09:27.186Z,100204.00
2017-11-24T08:11:52.997Z,100224.05
2017-11-24T08:14:18.825Z,100227.75
2017-11-24T08:16:44.848Z,100224.77
2017-11-24T08:19:10.702Z,100228.08
2017-11-24T08:21:36.548Z,100216.93
2017-11-24T08:24:02.444Z,100212.28
2017-11-24T08:26:28.283Z,100210.22
2017-11-24T08:28:54.151Z,100197.61
2017-11-24T08:31:20.009Z,100194.20
2017-11-24T08:33:45.866Z,100197.11
2017-11-24T08:36:11.710Z,100206.86
2017-11-24T08:38:37.551Z,100212.12
2017-11-24T08:41:03.358Z,100230.86
2017-11-24T08:43:29.162Z,100234.70
2017-11-24T08:45:55.030Z,100229.63
2017-11-24T08:48:26.856Z,100233.91
2017-11-24T08:50:52.664Z,100234.79
2017-11-24T08:53:18.519Z,100238.13
2017-11-24T08:55:44.319Z,100229.91
2017-11-24T08:58:10.351Z,100225.98
2017-11-24T09:00:37.362Z,100226.11
2017-11-24T09:03:03.506Z,100213.67
2017-11-24T09:05:29.323Z,100218.38
2017-11-24T09:07:56.492Z,100225.20
2017-11-24T09:10:22.548Z,100230.87
2017-11-24T09:12:48.911Z,100232.01
2017-11-24T09:15:16.476Z,100231.28
2017-11-24T09:17:43.518Z,100229.06
2017-11-24T09:20:17.368Z,100233.10
2017-11-24T09:22:44.368Z,100215.68
2017-11-24T09:25:10.354Z,100213.39
2017-11-24T09:27:36.201Z,100223.80
2017-11-24T09:30:02.305Z,100225.41
2017-11-24T09:32:28.132Z,100214.89
2017-11-24T09:34:53.967Z,100223.46
2017-11-24T09:37:19.922Z,100225.30
2017-11-24T09:39:45.746Z,100214.41
2017-11-24T09:42:11.582Z,100216.80
2017-11-24T09:44:37.429Z,100205.59
2017-11-24T09:47:03.504Z,100207.91
2017-11-24T09:49:29.331Z,100206.35
2017-11-24T09:51:55.142Z,100217.51
2017-11-24T09:54:20.972Z,100231.06
2017-11-24T09:56:46.813Z,100242.90
2017-11-24T09:59:12.650Z,100250.08
2017-11-24T10:01:38.473Z,100232.12
2017-11-24T10:04:04.305Z,100223.80
2017-11-24T10:06:30.096Z,100201.23
2017-11-24T10:08:56.243Z,100201.36
2017-11-24T10:11:22.045Z,100201.61
2017-11-24T10:13:47.870Z,100208.23
2017-11-24T10:16:13.901Z,100205.76
2017-11-24T10:18:39.724Z,100219.98
2017-11-24T10:21:11.842Z,100230.16
2017-11-24T10:23:37.706Z,100224.24
2017-11-24T10:26:03.542Z,100222.17
2017-11-24T10:28:29.356Z,100215.90
2017-11-24T10:30:55.166Z,100216.47
2017-11-24T10:33:20.980Z,100218.74
2017-11-24T10:35:46.809Z,100218.09
2017-11-24T10:38:12.618Z,100220.05
2017-11-24T10:40:38.610Z,100223.70
2017-11-24T10:43:04.424Z,100229.78
2017-11-24T10:45:30.278Z,100250.28
2017-11-24T10:47:57.017Z,100255.93
2017-11-24T10:50:22.850Z,100256.02
2017-11-24T10:52:48.713Z,100265.13
2017-11-24T10:55:14.508Z,100276.63
2017-11-24T10:57:40.358Z,100278.29
2017-11-24T11:00:06.175Z,100281.54
2017-11-24T11:02:32.018Z,100290.39
2017-11-24T11:04:58.765Z,100291.73
2017-11-24T11:07:24.552Z,100291.27
2017-11-24T11:09:50.388Z,100300.41
2017-11-24T11:12:16.210Z,100283.67
2017-11-24T11:14:42.005Z,100289.38
2017-11-24T11:17:07.809Z,100291.61
2017-11-24T11:19:33.606Z,100300.28
2017-11-24T11:21:59.666Z,100307.67
2017-11-24T11:24:25.458Z,100307.12
2017-11-24T11:26:51.825Z,100302.50
2017-11-24T11:29:17.654Z,100301.41
2017-11-24T11:31:43.774Z,100295.56
2017-11-24T11:34:09.590Z,100296.33
2017-11-24T11:36:35.683Z,100302.17
2017-11-24T11:39:02.751Z,100300.12
2017-11-24T11:41:28.712Z,100290.34
2017-11-24T11:43:54.899Z,100290.78
2017-11-24T11:46:20.968Z,100286.59
2017-11-24T11:48:47.396Z,100289.47
2017-11-24T11:51:14.057Z,100282.63
2017-11-24T11:53:40.026Z,100283.08
2017-11-24T11:56:05.906Z,100286.55
2017-11-24T11:58:31.853Z,100282.88
2017-11-24T12:00:57.666Z,100279.85
2017-11-24T12:03:23.505Z,100283.52
2017-11-24T12:05:50.885Z,100283.45
2017-11-24T12:08:17.006Z,100275.31
2017-11-24T12:10:43.394Z,100277.89
2017-11-24T12:13:09.421Z,100285.98
2017-11-24T12:15:35.546Z,100293.80
2017-11-24T12:18:01.345Z,100300.61
2017-11-24T12:20:27.580Z,100307.17
2017-11-24T12:22:54.129Z,100320.81
2017-11-24T12:25:20.686Z,100322.82
2017-11-24T12:27:46.562Z,100329.25
2017-11-24T12:30:12.359Z,100329.36
2017-11-24T12:32:38.177Z,100328.47
2017-11-24T12:35:03.991Z,100327.05
2017-11-24T12:37:30.246Z,100326.25
2017-11-24T12:39:56.113Z,100333.38
2017-11-24T12:42:22.699Z,100340.08
2017-11-24T12:44:48.545Z,100336.00
2017-11-24T12:47:14.679Z,100333.24
2017-11-24T12:49:40.493Z,100338.22
2017-11-24T12:52:06.303Z,100340.13
2017-11-24T12:54:32.480Z,100335.73
2017-11-24T12:56:58.379Z,100340.47
2017-11-24T12:59:25.680Z,100340.43
2017-11-24T13:01:51.817Z,100343.65
2017-11-24T13:04:18.672Z,100343.62
2017-11-24T13:06:45.418Z,100347.56
2017-11-24T13:09:11.388Z,100351.20
2017-11-24T13:11:37.226Z,100349.42
2017-11-24T13:14:03.058Z,100356.98
2017-11-24T13:16:29.578Z,100352.81
2017-11-24T13:18:55.916Z,100355.04
2017-11-24T13:21:21.802Z,100343.67
2017-11-24T13:23:48.473Z,100359.13
2017-11-24T13:26:14.556Z,100363.98
2017-11-24T13:28:41.078Z,100358.20
2017-11-24T13:31:07.189Z,100367.36
2017-11-24T13:33:33.079Z,100367.20
2017-11-24T13:35:58.880Z,100376.70
2017-11-24T13:38:25.184Z,100379.37
2017-11-24T13:40:51.741Z,100381.19
2017-11-24T13:43:17.548Z,100385.83
2017-11-24T13:45:43.622Z,100378.95
2017-11-24T13:48:09.650Z,100377.15
2017-11-24T13:50:35.441Z,100386.56
2017-11-24T13:53:01.527Z,100388.03
2017-11-24T13:55:27.429Z,100382.41
2017-11-24T13:57:53.224Z,100400.48
2017-11-24T14:00:19.628Z,100393.68
2017-11-24T14:02:46.488Z,100390.91
2017-11-24T14:05:13.245Z,100397.73
2017-11-24T14:07:39.075Z,100394.37
2017-11-24T14:10:04.949Z,100398.70
2017-11-24T14:12:30.760Z,100401.33
2017-11-24T14:14:56.545Z,100406.30
2017-11-24T14:17:22.688Z,100407.47
2017-11-24T14:19:48.508Z,100410.24
2017-11-24T14:22:14.305Z,100426.86
2017-11-24T14:24:40.122Z,100433.70
2017-11-24T14:27:05.917Z,100432.70
2017-11-24T14:29:31.720Z,100430.89
2017-11-24T14:31:57.545Z,100437.80
2017-11-24T14:34:23.329Z,100429.69
2017-11-24T14:36:49.135Z,100432.93
2017-11-24T14:39:14.951Z,100439.00
2017-11-24T14:41:40.746Z,100439.86
2017-11-24T14:44:09.041Z,100447.84
2017-11-24T14:46:35.169Z,100452.75
2017-11-24T14:49:00.961Z,100446.75
2017-11-24T14:51:26.749Z,100447.63
2017-11-24T14:53:52.820Z,100452.41
2017-11-24T14:56:18.625Z,100456.03
2017-11-24T14:58:44.429Z,100458.14
2017-11-24T15:01:10.472Z,100458.44
2017-11-24T15:03:36.289Z,100457.02
2017-11-24T15:06:02.100Z,100462.88
2017-11-24T15:08:27.940Z,100465.94
2017-11-24T15:10:53.766Z,100468.95
2017-11-24T15:13:19.588Z,100471.98
2017-11-24T15:15:45.422Z,100474.22
2017-11-24T15:18:11.226Z,100488.77
2017-11-24T15:20:37.060Z,100491.00
2017-11-24T15:23:02.921Z,100498.70
2017-11-24T15:25:28.723Z,100501.68
2017-11-24T15:27:54.539Z,100508.73
2017-11-24T15:30:21.421Z,100512.31
2017-11-24T15:32:47.232Z,100513.86
2017-11-24T15:35:13.276Z,100523.31
2017-11-24T15:37:39.798Z,100517.07
2017-11-24T15:40:05.593Z,100516.69
2017-11-24T15:42:31.396Z,100509.39
2017-11-24T15:44:57.565Z,100521.77
2017-11-24T15:47:23.378Z,100520.33
2017-11-24T15:49:49.164Z,100524.72
2017-11-24T15:52:15.227Z,100528.78
2017-11-24T15:54:41.041Z,100528.13
2017-11-24T15:57:06.834Z,100535.89
2017-11-24T15:59:32.994Z,100532.34
2017-11-24T16:01:58.815Z,100534.97
2017-11-24T16:04:24.622Z,100533.89
2017-11-24T16:06:51.515Z,100536.49
2017-11-24T16:09:17.336Z,100543.02
2017-11-24T16:11:43.127Z,100537.77
2017-11-24T16:14:09.228Z,100541.31
2017-11-24T16:16:35.016Z,100538.13
2017-11-24T16:19:00.829Z,100542.29
2017-11-24T16:21:26.644Z,100550.80
2017-11-24T16:23:52.437Z,100541.15
2017-11-24T16:26:18.232Z,100548.20
2017-11-24T16:28:44.060Z,100551.90
2017-11-24T16:31:09.858Z,100553.20
2017-11-24T16:33:35.701Z,100544.29
2017-11-24T16:36:01.510Z,100549.78
2017-11-24T16:38:27.330Z,100554.20
2017-11-24T16:40:53.176Z,100560.07
2017-11-24T16:43:18.962Z,100556.73
2017-11-24T16:45:44.771Z,100556.66
2017-11-24T16:48:10.595Z,100564.38
2017-11-24T16:50:36.415Z,100562.78
2017-11-24T16:53:02.268Z,100561.91
2017-11-24T16:55:28.073Z,100570.27
2017-11-24T16:57:53.899Z,100566.00
2017-11-24T17:00:20.082Z,100572.77
2017-11-24T17:02:45.891Z,100572.66
2017-11-24T17:05:11.700Z,100570.78
2017-11-24T17:07:37.840Z,100575.44
2017-11-24T17:10:03.651Z,100571.12
2017-11-24T17:12:29.448Z,100575.74
2017-11-24T17:14:55.581Z,100579.20
2017-11-24T17:17:21.408Z,100576.80
2017-11-24T17:19:47.260Z,100583.47
2017-11-24T17:22:14.290Z,100596.14
2017-11-24T17:24:40.102Z,100598.23
2017-11-24T17:27:05.908Z,100595.03
2017-11-24T17:29:31.751Z,100599.48
2017-11-24T17:31:57.553Z,100598.05
2017-11-24T17:34:23.420Z,100595.59
2017-11-24T17:36:49.240Z,100596.56
2017-11-24T17:39:15.025Z,100594.22
2017-11-24T17:41:40.830Z,100595.70
2017-11-24T17:44:06.653Z,100596.37
2017-11-24T17:46:32.498Z,100589.80
2017-11-24T17:48:58.300Z,100584.77
2017-11-24T17:51:24.123Z,100598.91
2017-11-24T17:53:49.941Z,100594.80
2017-11-24T17:56:15.735Z,100596.75
2017-11-24T17:58:41.553Z,100592.77
2017-11-24T18:01:07.358Z,100594.02
2017-11-24T18:03:33.201Z,100594.55
2017-11-24T18:05:59.028Z,100600.72
2017-11-24T18:08:24.841Z,100598.09
2017-11-24T18:10:50.633Z,100606.93
2017-11-24T18:13:16.465Z,100610.48
2017-11-24T18:15:42.314Z,100610.93
2017-11-24T18:18:08.124Z,100609.05
2017-11-24T18:20:34.235Z,100616.44
2017-11-24T18:23:00.045Z,100613.13
2017-11-24T18:25:25.858Z,100615.63
2017-11-24T18:27:51.779Z,100623.02
2017-11-24T18:30:17.612Z,100623.75
2017-11-24T18:32:43.445Z,100625.05
2017-11-24T18:35:09.280Z,100620.15
2017-11-24T18:37:35.097Z,100616.84
2017-11-24T18:40:00.905Z,100619.42
2017-11-24T18:42:26.752Z,100617.73
2017-11-24T18:44:52.557Z,100625.86
2017-11-24T18:47:18.381Z,100629.25
2017-11-24T18:49:44.221Z,100626.32
2017-11-24T18:52:10.190Z,100634.64
2017-11-24T18:54:36.005Z,100634.61
2017-11-24T18:57:01.811Z,100633.93
2017-11-24T18:59:27.621Z,100642.73
2017-11-24T19:01:53.454Z,100645.66
2017-11-24T19:04:19.284Z,100648.45
2017-11-24T19:06:45.093Z,100647.33
2017-11-24T19:09:10.899Z,100654.42
2017-11-24T19:11:36.734Z,100653.58
2017-11-24T19:14:02.577Z,100655.66
2017-11-24T19:16:28.376Z,100655.35
2017-11-24T19:18:54.499Z,100652.38
2017-11-24T19:21:20.330Z,100653.52
2017-11-24T19:23:46.144Z,100655.11
2017-11-24T19:26:11.976Z,100653.30
2017-11-24T19:28:37.786Z,100651.76
2017-11-24T19:31:03.633Z,100654.56
2017-11-24T19:33:29.461Z,100666.77
2017-11-24T19:35:55.289Z,100669.72
2017-11-24T19:38:21.096Z,100668.40
2017-11-24T19:40:46.913Z,100672.94
2017-11-24T19:43:12.757Z,100668.23
2017-11-24T19:45:38.586Z,100673.78
2017-11-24T19:48:04.373Z,100667.75
2017-11-24T19:50:30.576Z,100675.34
2017-11-24T19:52:56.418Z,100673.97
2017-11-24T19:55:22.234Z,100671.55
2017-11-24T19:57:48.402Z,100678.11
2017-11-24T20:00:14.225Z,100677.73
2017-11-24T20:02:40.037Z,100675.52
2017-11-24T20:05:05.874Z,100667.83
2017-11-24T20:07:31.695Z,100671.07
2017-11-24T20:13:26.826Z,100657.36
2017-11-24T20:15:52.627Z,100659.23
2017-11-24T20:18:18.420Z,100656.80
2017-11-24T20:20:44.255Z,100661.23
2017-11-24T20:23:10.080Z,100666.27
2017-11-24T20:25:35.877Z,100666.51
2017-11-24T20:28:01.682Z,100667.77
2017-11-24T20:30:27.500Z,100665.33
2017-11-24T20:32:53.318Z,100665.45
2017-11-24T20:35:19.171Z,100666.14
2017-11-24T20:37:44.955Z,100662.16
2017-11-24T20:40:10.771Z,100666.90
2017-11-24T20:42:36.582Z,100664.78
2017-11-24T20:45:02.424Z,100663.39
2017-11-24T20:47:28.228Z,100671.00
2017-11-24T20:49:54.052Z,100671.13
2017-11-24T20:52:19.899Z,100666.58
2017-11-24T20:54:45.712Z,100661.70
2017-11-24T20:57:11.508Z,100664.20
2017-11-24T20:59:37.318Z,100662.47
2017-11-24T21:02:03.130Z,100666.38
2017-11-24T21:04:28.950Z,100662.89
2017-11-24T21:06:54.781Z,100665.00
2017-11-24T21:09:20.607Z,100662.30
2017-11-24T21:11:46.436Z,100671.13
2017-11-24T21:14:12.236Z,100665.58
2017-11-24T21:16:38.082Z,100668.55
2017-11-24T21:19:03.917Z,100671.80
2017-11-24T21:21:29.724Z,100671.96
2017-11-24T21:23:55.731Z,100672.05
2017-11-24T21:26:21.565Z,100679.02
2017-11-24T21:28:47.394Z,100680.42
2017-11-24T21:31:13.251Z,100687.14
2017-11-24T21:33:39.042Z,100693.16
2017-11-24T21:36:04.841Z,100687.98
2017-11-24T21:38:31.047Z,100688.95
2017-11-24T21:40:56.896Z,100684.13
2017-11-24T21:43:22.678Z,100682.62
2017-11-24T21:45:48.489Z,100672.50
2017-11-24T21:48:14.286Z,100674.67
2017-11-24T21:50:40.129Z,100667.18
2017-11-24T21:53:05.924Z,100663.13
2017-11-24T21:55:31.729Z,100662.59
2017-11-24T21:57:57.917Z,100659.81
2017-11-24T22:00:23.722Z,100656.73
2017-11-24T22:02:49.528Z,100665.13
2017-11-24T22:05:15.362Z,100666.65
2017-11-24T22:07:41.202Z,100672.55
2017-11-24T22:10:07.002Z,100678.58
2017-11-24T22:12:32.825Z,100681.66
2017-11-24T22:14:58.947Z,100687.08
2017-11-24T22:17:24.744Z,100689.72
2017-11-24T22:19:50.530Z,100685.95
2017-11-24T22:22:16.338Z,100690.41
2017-11-24T22:24:42.136Z,100689.81
2017-11-24T22:27:07.931Z,100679.61
2017-11-24T22:29:33.870Z,100687.06
2017-11-24T22:31:59.681Z,100678.20
2017-11-24T22:34:25.497Z,100685.29
2017-11-24T22:36:51.850Z,100685.45
2017-11-24T22:39:17.676Z,100688.98
2017-11-24T22:41:43.467Z,100686.86
2017-11-24T22:44:09.687Z,100688.20
2017-11-24T22:46:35.469Z,100686.86
2017-11-24T22:49:01.252Z,100688.16
2017-11-24T22:51:27.069Z,100683.84
2017-11-24T22:53:52.884Z,100679.99
2017-11-24T22:56:18.805Z,100680.16
2017-11-24T22:58:44.867Z,100673.25
2017-11-24T23:01:10.654Z,100682.16
2017-11-24T23:03:36.456Z,100678.55
2017-11-24T23:06:02.286Z,100679.67
2017-11-24T23:08:28.110Z,100675.29
2017-11-24T23:10:53.950Z,100675.95
2017-11-24T23:13:19.756Z,100667.46
2017-11-24T23:15:45.550Z,100667.89
2017-11-24T23:18:11.542Z,100668.17
2017-11-24T23:20:37.338Z,100672.97
2017-11-24T23:23:03.141Z,100676.60
2017-11-24T23:25:28.943Z,100684.75
2017-11-24T23:27:54.725Z,100685.09
2017-11-24T23:30:20.846Z,100686.16
2017-11-24T23:32:46.633Z,100690.44
2017-11-24T23:35:12.416Z,100686.42
2017-11-24T23:37:38.221Z,100689.08
2017-11-24T23:40:04.014Z,100690.21
2017-11-24T23:42:29.820Z,100687.84
2017-11-24T23:44:55.633Z,100691.41
2017-11-24T23:47:21.423Z,100685.45
2017-11-24T23:49:47.241Z,100680.39
2017-11-24T23:52:13.028Z,100682.97
2017-11-24T23:54:38.836Z,100685.77
2017-11-24T23:57:04.644Z,100689.78
2017-11-24T23:59:30.857Z,100692.69
